Time;durP1;ratioP1;P1;durP2;ratioP2;P2;SDS_P1;SDS_P2;PMS_P1;PMS_P2;Temp;Humidity;BMP_temperature;BMP_pressure;BME280_temperature;BME280_humidity;BME280_pressure;Samples;Min_cycle;Max_cycle;Signal;HPM_P1;HPM_P2
2022/08/15 00:00:52;;;;;;;17.02;12.07;;;;;;;19.05;80.92;98824.00;5131617;27;20026;-44
2022/08/15 00:03:23;;;;;;;17.58;12.38;;;;;;;18.94;81.27;98824.09;5131986;27;20023;-44
2022/08/15 00:05:49;;;;;;;16.38;12.20;;;;;;;18.94;81.62;98824.09;5131380;27;20125;-43
2022/08/15 00:08:16;;;;;;;14.10;12.05;;;;;;;19.04;81.08;98823.22;5131719;27;20073;-42
2022/08/15 00:10:44;;;;;;;16.25;12.90;;;;;;;19.12;80.80;98829.88;5132076;27;20075;-43
2022/08/15 00:13:28;;;;;;;17.38;13.00;;;;;;;19.66;78.88;98833.44;5131938;27;20023;-44
2022/08/15 00:15:55;;;;;;;17.13;13.18;;;;;;;19.59;78.51;98833.78;5132151;27;20019;-43
2022/08/15 00:18:24;;;;;;;17.35;13.75;;;;;;;19.18;81.11;98827.97;5131547;27;20023;-42
2022/08/15 00:20:50;;;;;;;19.17;14.00;;;;;;;19.28;80.81;98836.75;5131183;27;20029;-43
2022/08/15 00:23:18;;;;;;;17.63;14.07;;;;;;;19.19;81.02;98832.25;5131156;27;20035;-43
2022/08/15 00:25:49;;;;;;;17.85;14.32;;;;;;;18.84;82.65;98829.53;5131621;27;20019;-45
2022/08/15 00:28:15;;;;;;;17.10;13.80;;;;;;;18.73;83.48;98842.25;5131615;27;20023;-44
2022/08/15 00:30:43;;;;;;;18.13;13.10;;;;;;;18.82;83.18;98837.09;5131383;27;20039;-44
2022/08/15 00:33:09;;;;;;;17.52;14.23;;;;;;;19.58;79.15;98831.38;5131844;27;20051;-44
2022/08/15 00:35:39;;;;;;;18.08;13.32;;;;;;;19.09;81.31;98825.84;5132329;27;20031;-44
2022/08/15 00:38:21;;;;;;;15.35;12.55;;;;;;;19.06;81.67;98829.13;5131994;27;20019;-45
2022/08/15 00:43:40;;;;;;;17.73;13.23;;;;;;;18.93;82.35;98833.25;5131885;27;20095;-44
2022/08/15 00:46:08;;;;;;;16.92;13.68;;;;;;;19.05;81.87;98835.59;5131997;27;20413;-43
2022/08/15 00:48:42;;;;;;;16.23;12.35;;;;;;;19.02;81.97;98835.34;5131961;27;20063;-43
2022/08/15 00:51:35;;;;;;;14.05;12.20;;;;;;;19.00;82.18;98832.94;5131882;27;20466;-43
2022/08/15 00:54:26;;;;;;;16.50;13.13;;;;;;;19.09;82.05;98830.44;5131426;27;20023;-43
2022/08/15 00:57:06;;;;;;;14.48;11.98;;;;;;;19.65;79.22;98829.94;5124924;27;20470;-42
2022/08/15 00:59:37;;;;;;;16.42;13.20;;;;;;;19.49;79.80;98828.47;5131693;27;20096;-43
2022/08/15 01:02:07;;;;;;;15.15;12.65;;;;;;;19.34;81.20;98827.53;5131691;27;20071;-42
2022/08/15 01:04:36;;;;;;;17.77;13.80;;;;;;;19.28;81.81;98844.03;5131054;27;20031;-43
2022/08/15 01:07:03;;;;;;;15.63;13.27;;;;;;;19.27;82.11;98837.84;5131819;27;20030;-43
2022/08/15 01:09:30;;;;;;;15.23;13.15;;;;;;;19.40;81.82;98836.41;5131933;27;20143;-43
2022/08/15 01:12:07;;;;;;;14.80;12.85;;;;;;;19.41;81.89;98838.00;5131848;27;20015;-44
2022/08/15 01:14:35;;;;;;;19.20;13.27;;;;;;;19.49;81.61;98841.97;5131695;27;20550;-44
2022/08/15 01:17:02;;;;;;;15.77;12.75;;;;;;;19.53;80.34;98843.84;5131559;27;20140;-46
2022/08/15 01:19:38;;;;;;;17.17;13.02;;;;;;;19.45;81.70;98846.31;5131620;27;20466;-44
2022/08/15 01:22:25;;;;;;;13.90;11.73;;;;;;;19.50;80.64;98847.09;5131826;27;20046;-43
2022/08/15 01:24:59;;;;;;;16.45;12.15;;;;;;;19.62;80.13;98851.31;5131508;28;20038;-44
2022/08/15 01:27:32;;;;;;;17.33;12.73;;;;;;;19.90;78.35;98847.00;5131465;27;20054;-43
2022/08/15 01:29:59;;;;;;;16.30;12.38;;;;;;;19.76;78.36;98852.25;5131548;27;20473;-44
2022/08/15 01:32:25;;;;;;;16.42;13.43;;;;;;;19.38;80.37;98846.66;5131429;27;20054;-42
2022/08/15 01:34:51;;;;;;;18.25;13.75;;;;;;;19.49;80.14;98847.38;5131685;27;20031;-43
2022/08/15 01:37:17;;;;;;;19.58;13.80;;;;;;;19.41;80.74;98854.19;5131392;27;20137;-43
2022/08/15 01:40:10;;;;;;;18.88;13.98;;;;;;;19.36;80.77;98862.31;5131750;27;20027;-44
2022/08/15 01:42:45;;;;;;;18.27;13.23;;;;;;;19.11;82.08;98864.16;5131517;28;20076;-43
2022/08/15 01:45:15;;;;;;;19.95;13.38;;;;;;;19.07;82.20;98865.75;5131949;27;20027;-43
2022/08/15 01:48:20;;;;;;;19.08;13.43;;;;;;;19.62;78.89;98870.97;5131213;27;20027;-43
2022/08/15 01:50:53;;;;;;;15.68;13.48;;;;;;;19.24;81.38;98865.38;5131435;28;20138;-42
2022/08/15 01:53:30;;;;;;;17.20;13.75;;;;;;;19.25;81.57;98856.22;5131501;27;20023;-43
2022/08/15 01:56:07;;;;;;;18.05;14.05;;;;;;;19.39;81.35;98861.75;5129798;28;20103;-42
2022/08/15 01:58:40;;;;;;;16.65;13.40;;;;;;;19.43;80.72;98857.41;5130727;27;20412;-45
2022/08/15 02:01:15;;;;;;;17.08;13.77;;;;;;;19.40;81.02;98857.97;5131521;27;20027;-44
2022/08/15 02:03:43;;;;;;;18.92;14.02;;;;;;;19.25;81.40;98864.31;5130994;27;20031;-44
2022/08/15 02:06:13;;;;;;;15.98;13.45;;;;;;;18.99;82.35;98860.97;5131395;27;20115;-44
2022/08/15 02:08:40;;;;;;;19.33;13.20;;;;;;;19.33;80.77;98868.28;5130700;27;20102;-42
2022/08/15 02:11:09;;;;;;;18.95;14.15;;;;;;;19.45;79.43;98865.22;5131241;27;20039;-44
2022/08/15 02:13:35;;;;;;;17.38;13.77;;;;;;;19.08;80.96;98855.81;5130994;27;20084;-42
2022/08/15 02:16:02;;;;;;;17.48;13.43;;;;;;;18.73;83.26;98861.13;5130007;28;20053;-42
2022/08/15 02:18:28;;;;;;;17.25;13.50;;;;;;;18.47;84.29;98868.53;5131018;27;20128;-44
2022/08/15 02:20:54;;;;;;;17.85;13.82;;;;;;;18.69;83.49;98860.03;5131013;27;20050;-45
2022/08/15 02:23:21;;;;;;;18.45;13.65;;;;;;;18.95;81.84;98862.63;5131155;27;20041;-44
2022/08/15 02:25:52;;;;;;;19.85;14.13;;;;;;;18.89;81.57;98863.75;5130958;27;20558;-43
2022/08/15 02:28:18;;;;;;;17.40;13.52;;;;;;;19.22;79.20;98862.16;5132157;27;20462;-43
2022/08/15 02:30:43;;;;;;;18.50;14.15;;;;;;;18.77;80.92;98858.66;5134332;27;20051;-43
2022/08/15 02:33:09;;;;;;;18.67;13.73;;;;;;;18.54;81.30;98852.03;5133942;27;20034;-43
2022/08/15 02:35:36;;;;;;;22.35;15.05;;;;;;;18.35;82.47;98868.03;5134609;27;20088;-44
2022/08/15 02:38:05;;;;;;;22.95;15.13;;;;;;;18.28;82.87;98864.84;5134032;27;20502;-45
2022/08/15 02:40:32;;;;;;;20.30;14.07;;;;;;;18.38;83.14;98864.00;5133640;27;20590;-43
2022/08/15 02:43:07;;;;;;;18.83;14.07;;;;;;;18.58;82.84;98868.47;5134032;27;20026;-46
2022/08/15 02:45:37;;;;;;;19.02;14.07;;;;;;;19.02;80.43;98868.53;5134078;27;20392;-44
2022/08/15 02:48:08;;;;;;;18.15;13.75;;;;;;;18.99;80.23;98862.88;5133283;27;20550;-42
2022/08/15 02:50:35;;;;;;;18.38;13.80;;;;;;;18.71;81.34;98851.69;5133866;27;20105;-43
2022/08/15 02:53:12;;;;;;;21.85;14.38;;;;;;;18.40;82.76;98845.66;5133852;27;20052;-43
2022/08/15 02:55:41;;;;;;;19.85;13.90;;;;;;;18.03;84.36;98852.25;5134199;27;20019;-43
2022/08/15 02:58:09;;;;;;;21.38;14.00;;;;;;;18.06;84.85;98852.50;5134175;27;20050;-43
2022/08/15 03:00:35;;;;;;;20.10;13.90;;;;;;;18.11;84.12;98849.81;5134075;27;20478;-43
2022/08/15 03:03:08;;;;;;;17.85;13.70;;;;;;;18.91;79.70;98858.88;5133609;27;20138;-42
2022/08/15 03:05:36;;;;;;;21.55;14.80;;;;;;;18.44;82.19;98849.41;5134013;27;20015;-43
2022/08/15 03:08:03;;;;;;;21.67;14.25;;;;;;;18.40;82.63;98848.34;5133978;27;20031;-43
2022/08/15 03:10:29;;;;;;;23.00;14.90;;;;;;;18.55;81.74;98857.16;5134022;27;20442;-43
2022/08/15 03:12:58;;;;;;;19.23;14.25;;;;;;;18.52;82.03;98851.53;5133479;27;20102;-43
2022/08/15 03:15:31;;;;;;;17.73;14.13;;;;;;;18.37;82.42;98855.09;5133692;27;20019;-44
2022/08/15 03:17:59;;;;;;;21.42;14.77;;;;;;;18.68;80.99;98838.78;5133911;27;20058;-43
2022/08/15 03:20:25;;;;;;;18.90;13.68;;;;;;;18.70;80.90;98847.41;5133491;27;20087;-45
2022/08/15 03:22:53;;;;;;;19.20;13.57;;;;;;;18.51;82.27;98849.94;5132506;27;20027;-42
2022/08/15 03:25:21;;;;;;;18.42;13.65;;;;;;;18.56;82.55;98847.19;5133571;27;20490;-42
2022/08/15 03:27:47;;;;;;;18.25;13.48;;;;;;;18.55;82.25;98848.28;5133416;27;20031;-43
2022/08/15 03:30:15;;;;;;;18.35;13.27;;;;;;;18.56;82.51;98855.25;5133718;27;20441;-44
2022/08/15 03:32:54;;;;;;;16.08;12.88;;;;;;;18.68;81.46;98846.88;5133474;27;20039;-44
2022/08/15 03:35:23;;;;;;;19.95;15.13;;;;;;;18.70;80.64;98858.97;5133131;27;20381;-44
2022/08/15 03:37:48;;;;;;;18.00;13.67;;;;;;;18.73;80.58;98850.34;5133498;27;20026;-45
2022/08/15 03:40:15;;;;;;;22.30;13.77;;;;;;;18.89;79.23;98853.78;5133437;27;20023;-44
2022/08/15 03:42:52;;;;;;;19.52;13.98;;;;;;;18.54;81.73;98857.44;5133141;27;20019;-45
2022/08/15 03:45:19;;;;;;;22.20;15.02;;;;;;;18.56;81.75;98858.78;5132368;27;20027;-45
2022/08/15 03:47:45;;;;;;;34.75;23.25;;;;;;;18.80;80.81;98860.00;5131860;27;20019;-43
2022/08/15 03:50:12;;;;;;;19.55;14.95;;;;;;;19.52;77.46;98869.19;5132275;27;20529;-43
2022/08/15 03:52:53;;;;;;;18.02;12.82;;;;;;;19.89;75.51;98862.38;5131818;27;20539;-43
2022/08/15 03:55:20;;;;;;;17.33;13.68;;;;;;;20.04;74.14;98864.09;5131462;27;20030;-43
2022/08/15 03:57:46;;;;;;;10.93;7.65;;;;;;;20.55;62.51;98856.50;5132181;27;20038;-42
2022/08/15 04:00:14;;;;;;;17.00;13.20;;;;;;;20.90;70.01;98866.03;5132120;27;20027;-42
2022/08/15 04:02:39;;;;;;;16.63;12.82;;;;;;;20.93;69.11;98870.06;5131737;27;20458;-43
2022/08/15 04:05:07;;;;;;;17.65;12.98;;;;;;;20.93;69.48;98870.84;5131810;27;20023;-43
2022/08/15 04:07:33;;;;;;;14.57;12.25;;;;;;;21.12;69.82;98865.44;5131841;27;20034;-43
2022/08/15 04:09:59;;;;;;;17.27;12.68;;;;;;;21.23;70.13;98876.91;5131976;27;20147;-45
2022/08/15 04:12:36;;;;;;;18.30;12.98;;;;;;;21.37;70.31;98875.03;5131991;27;20027;-44
2022/08/15 04:15:04;;;;;;;19.90;13.60;;;;;;;21.64;68.86;98874.31;5129936;27;20031;-47
2022/08/15 04:17:30;;;;;;;18.05;13.48;;;;;;;21.92;67.77;98879.81;5121140;27;20031;-43
2022/08/15 04:19:55;;;;;;;17.55;12.65;;;;;;;22.00;67.21;98887.22;5110950;28;20371;-43
2022/08/15 04:22:37;;;;;;;16.27;12.52;;;;;;;22.27;66.58;98884.84;5122853;27;20023;-43
2022/08/15 04:25:06;;;;;;;18.17;13.43;;;;;;;22.42;66.11;98881.84;5131507;27;20733;-43
2022/08/15 04:27:31;;;;;;;18.50;13.25;;;;;;;22.63;66.29;98887.63;5131119;27;20094;-43
2022/08/15 04:29:57;;;;;;;19.85;12.65;;;;;;;22.87;65.50;98887.38;5131441;27;20025;-43
2022/08/15 04:32:26;;;;;;;18.60;12.00;;;;;;;23.09;64.55;98886.63;5130439;27;20119;-42
2022/08/15 04:34:54;;;;;;;14.27;10.70;;;;;;;23.47;64.05;98893.63;5135774;27;20122;-42
2022/08/15 04:37:21;;;;;;;15.82;12.10;;;;;;;23.70;63.57;98897.09;5148281;27;20045;-45
2022/08/15 04:39:48;;;;;;;18.35;11.95;;;;;;;23.86;62.71;98901.06;5137488;27;20011;-43
2022/08/15 04:42:14;;;;;;;16.73;11.35;;;;;;;24.04;61.48;98884.84;5151872;27;20053;-45
2022/08/15 04:44:40;;;;;;;14.50;11.02;;;;;;;24.25;60.99;98895.94;5133342;27;20034;-42
2022/08/15 04:47:06;;;;;;;18.73;11.20;;;;;;;24.44;59.77;98890.25;5130294;27;20398;-43
2022/08/15 04:49:32;;;;;;;16.42;11.10;;;;;;;24.71;59.39;98898.19;5129874;27;20023;-42
2022/08/15 04:52:19;;;;;;;32.40;23.50;;;;;;;24.88;59.38;98902.81;5132454;27;20023;-41
2022/08/15 04:54:45;;;;;;;29.25;21.83;;;;;;;25.03;57.94;98889.88;5128194;27;20015;-42
2022/08/15 04:57:12;;;;;;;23.60;12.98;;;;;;;25.38;57.41;98892.59;5150078;27;20022;-43
2022/08/15 04:59:42;;;;;;;19.90;11.48;;;;;;;25.66;57.10;98899.28;5150132;27;20014;-43
2022/08/15 05:02:09;;;;;;;;;;;;;;;26.03;55.99;98902.41;5150790;27;20022;-43
2022/08/15 05:04:35;;;;;;;21.45;11.75;;;;;;;26.18;56.02;98895.63;5150234;27;19972;-43
2022/08/15 05:07:01;;;;;;;29.77;12.77;;;;;;;26.34;54.55;98893.13;5150037;27;20038;-43
2022/08/15 05:09:26;;;;;;;17.17;10.20;;;;;;;26.61;52.58;98880.97;5149695;27;20018;-43
2022/08/15 05:11:52;;;;;;;13.82;8.48;;;;;;;26.58;52.38;98880.78;5151139;27;20485;-44
2022/08/15 05:14:18;;;;;;;14.13;8.73;;;;;;;26.76;52.12;98878.78;5151476;27;20102;-42
2022/08/15 05:16:44;;;;;;;15.15;9.13;;;;;;;27.13;51.69;98885.25;5150791;27;20023;-44
2022/08/15 05:19:09;;;;;;;15.55;7.82;;;;;;;27.33;50.24;98878.16;5150829;27;20019;-42
2022/08/15 05:21:36;;;;;;;16.33;7.78;;;;;;;27.55;49.58;98885.19;5144683;27;20011;-46
2022/08/15 05:24:02;;;;;;;10.13;6.13;;;;;;;27.06;48.47;98884.97;5130210;27;20027;-45
2022/08/15 05:26:28;;;;;;;7.22;6.18;;;;;;;27.13;48.23;98866.13;5130213;27;20031;-42
2022/08/15 05:28:53;;;;;;;8.48;6.30;;;;;;;27.42;48.06;98869.91;5129755;27;20030;-44
2022/08/15 05:31:18;;;;;;;7.55;6.22;;;;;;;27.68;47.79;98875.91;5129531;28;20047;-44
2022/08/15 05:33:46;;;;;;;7.03;6.13;;;;;;;27.36;48.15;98871.22;5129728;28;20027;-43
2022/08/15 05:36:13;;;;;;;9.20;6.45;;;;;;;26.89;48.99;98875.78;5129740;27;20093;-44
2022/08/15 05:38:45;;;;;;;8.55;6.55;;;;;;;27.37;48.80;98878.31;5130041;27;20026;-47
2022/08/15 05:41:22;;;;;;;6.97;6.28;;;;;;;26.38;51.06;98877.69;5129296;27;20102;-43
2022/08/15 05:44:09;;;;;;;9.50;6.25;;;;;;;27.09;49.85;98892.47;5129570;27;20019;-44
2022/08/15 05:46:49;;;;;;;8.77;6.03;;;;;;;27.37;49.05;98894.69;5129772;27;20023;-45
2022/08/15 05:49:55;;;;;;;7.50;5.75;;;;;;;27.82;48.17;98902.91;5129110;27;20027;-43
2022/08/15 05:52:27;;;;;;;7.85;5.80;;;;;;;27.83;47.48;98906.41;5129343;27;20023;-45
2022/08/15 05:55:26;;;;;;;6.93;5.63;;;;;;;28.00;47.79;98908.97;5129731;27;20038;-43
2022/08/15 05:58:17;;;;;;;8.65;6.00;;;;;;;26.66;50.25;98908.06;5129375;27;20063;-43
2022/08/15 06:00:58;;;;;;;8.50;5.95;;;;;;;26.51;51.29;98922.25;5129564;27;20494;-45
2022/08/15 06:03:27;;;;;;;8.40;6.28;;;;;;;26.46;51.05;98920.47;5130245;27;20323;-45
2022/08/15 06:05:59;;;;;;;11.27;6.45;;;;;;;26.70;51.20;98917.16;5132288;27;20386;-43
2022/08/15 06:08:35;;;;;;;9.23;5.97;;;;;;;27.27;50.05;98906.84;5133744;27;20023;-43
2022/08/15 06:11:15;;;;;;;9.18;6.32;;;;;;;27.65;49.23;98908.56;5133998;27;20023;-44
2022/08/15 06:13:49;;;;;;;7.60;6.60;;;;;;;27.85;49.12;98899.50;5133308;27;20051;-45
2022/08/15 06:16:41;;;;;;;9.98;6.30;;;;;;;28.18;48.20;98900.56;5133317;27;20027;-41
2022/08/15 06:19:25;;;;;;;8.73;6.25;;;;;;;27.80;49.02;98902.44;5133368;27;20023;-43
2022/08/15 06:22:05;;;;;;;7.45;5.50;;;;;;;28.27;48.14;98909.47;5133194;27;20019;-43
2022/08/15 06:25:06;;;;;;;5.93;5.32;;;;;;;28.64;46.57;98910.28;5133261;27;20519;-45
2022/08/15 06:28:03;;;;;;;6.80;4.82;;;;;;;28.94;45.71;98909.16;5059700;27;20121;-43
2022/08/15 06:30:44;;;;;;;5.68;4.90;;;;;;;28.61;45.74;98910.16;5121777;27;20043;-44
2022/08/15 06:33:20;;;;;;;6.45;4.45;;;;;;;28.77;45.44;98919.25;5132994;27;20096;-43
2022/08/15 06:36:04;;;;;;;6.47;4.78;;;;;;;29.27;44.00;98921.91;5133019;27;20050;-47
2022/08/15 06:38:54;;;;;;;5.80;4.53;;;;;;;29.47;43.97;98920.88;5123318;27;20031;-43
2022/08/15 06:41:20;;;;;;;7.85;4.70;;;;;;;29.71;43.30;98922.72;5124365;27;20084;-37
2022/08/15 06:43:46;;;;;;;6.68;4.80;;;;;;;29.72;43.25;98928.97;5133119;27;20039;-36
2022/08/15 06:46:13;;;;;;;8.55;4.88;;;;;;;28.98;44.15;98929.25;5131312;27;20031;-36
2022/08/15 06:48:41;;;;;;;9.48;4.95;;;;;;;28.97;44.39;98936.66;5132339;27;20046;-38
2022/08/15 06:51:08;;;;;;;6.45;4.75;;;;;;;28.90;45.05;98936.47;5132083;27;20035;-37
2022/08/15 06:53:48;;;;;;;6.72;4.70;;;;;;;29.29;44.00;98936.03;5132703;27;20034;-37
2022/08/15 06:56:19;;;;;;;;;;;;;;;28.68;45.27;98945.97;5131169;27;20030;-37
2022/08/15 06:58:58;;;;;;;9.10;5.15;;;;;;;28.21;45.56;98936.22;5130686;27;19911;-37
2022/08/15 07:01:41;;;;;;;5.75;4.78;;;;;;;28.79;44.12;98943.56;5131717;27;20023;-37
2022/08/15 07:04:19;;;;;;;6.35;4.68;;;;;;;29.12;43.45;98937.88;5132031;27;20038;-38
2022/08/15 07:06:59;;;;;;;5.18;4.43;;;;;;;28.95;42.72;98935.41;5131771;27;20035;-36
2022/08/15 07:09:49;;;;;;;5.88;4.20;;;;;;;29.28;42.74;98932.50;5132041;27;20037;-36
2022/08/15 07:12:43;;;;;;;6.63;4.63;;;;;;;30.01;41.79;98933.31;5132587;27;20148;-37
2022/08/15 07:15:21;;;;;;;6.90;4.43;;;;;;;30.09;40.36;98942.50;5132283;27;20109;-37
2022/08/15 07:17:54;;;;;;;5.97;4.55;;;;;;;30.40;40.47;98934.28;5132459;27;20038;-37
2022/08/15 07:20:20;;;;;;;4.63;4.20;;;;;;;30.57;39.52;98935.06;5132643;27;20402;-38
2022/08/15 07:22:45;;;;;;;8.95;4.57;;;;;;;30.55;40.05;98934.63;5132207;27;20023;-39
2022/08/15 07:25:14;;;;;;;5.30;4.40;;;;;;;29.57;41.35;98939.56;5132181;27;20024;-37
2022/08/15 07:27:40;;;;;;;9.50;4.45;;;;;;;30.12;40.42;98937.13;5131957;27;20387;-37
2022/08/15 07:30:17;;;;;;;5.25;4.75;;;;;;;28.81;42.51;98942.06;5131584;27;20039;-38
2022/08/15 07:32:54;;;;;;;7.80;4.60;;;;;;;29.61;42.20;98934.19;5131793;27;20035;-36
2022/08/15 07:35:34;;;;;;;8.15;4.70;;;;;;;30.11;41.15;98930.03;5131974;27;20359;-37
2022/08/15 07:38:06;;;;;;;6.47;4.57;;;;;;;30.83;40.15;98942.72;5132743;27;20019;-37
2022/08/15 07:40:41;;;;;;;6.57;4.70;;;;;;;30.99;39.06;98935.22;5132591;27;20024;-36
2022/08/15 07:43:35;;;;;;;6.38;4.47;;;;;;;31.61;38.12;98928.25;5132447;27;20466;-37
2022/08/15 07:46:17;;;;;;;6.28;4.53;;;;;;;31.61;38.38;98939.25;5115041;27;20150;-37
2022/08/15 07:48:43;;;;;;;4.70;4.30;;;;;;;31.89;37.69;98937.03;5132098;27;20021;-37
2022/08/15 07:51:17;;;;;;;5.57;4.72;;;;;;;31.94;37.17;98944.16;5131296;27;20072;-37
2022/08/15 07:54:24;;;;;;;5.95;4.78;;;;;;;31.22;38.16;98936.50;5131579;27;20421;-37
2022/08/15 07:57:01;;;;;;;5.60;4.53;;;;;;;31.68;37.33;98933.88;5114122;27;20503;-37
2022/08/15 07:59:30;;;;;;;7.38;4.68;;;;;;;32.12;36.92;98923.28;5131455;27;20096;-37
2022/08/15 08:02:42;;;;;;;7.10;4.50;;;;;;;31.51;38.28;98929.63;5131186;27;20508;-37
2022/08/15 08:05:10;;;;;;;6.18;4.60;;;;;;;31.58;37.44;98932.50;5067580;28;20035;-37
2022/08/15 08:07:42;;;;;;;7.80;4.93;;;;;;;31.33;38.17;98935.53;5067575;28;20098;-38
2022/08/15 08:10:29;;;;;;;5.05;4.55;;;;;;;31.44;37.81;98926.72;5100796;27;20606;-37
2022/08/15 08:13:13;;;;;;;5.32;4.72;;;;;;;31.68;37.96;98925.63;5130870;27;20057;-37
2022/08/15 08:15:53;;;;;;;6.25;4.63;;;;;;;32.03;37.67;98925.50;5131366;27;20057;-38
2022/08/15 08:18:44;;;;;;;6.43;4.68;;;;;;;32.08;37.04;98916.13;5131014;27;20011;-37
2022/08/15 08:21:16;;;;;;;5.15;4.65;;;;;;;31.47;37.68;98913.09;5129403;27;20026;-38
2022/08/15 08:23:47;;;;;;;7.93;4.95;;;;;;;31.64;37.16;98908.28;5127301;27;20414;-38
2022/08/15 08:26:27;;;;;;;5.30;4.80;;;;;;;31.46;37.36;98905.16;5127154;27;20038;-38
2022/08/15 08:29:22;;;;;;;7.22;4.72;;;;;;;31.26;37.94;98896.91;5127397;27;20023;-36
2022/08/15 08:32:13;;;;;;;5.95;4.93;;;;;;;30.64;38.23;98907.00;5128503;27;20039;-38
2022/08/15 08:34:58;;;;;;;6.03;4.80;;;;;;;31.09;37.72;98894.63;5126607;27;20027;-37
2022/08/15 08:37:41;;;;;;;5.78;5.18;;;;;;;31.21;37.29;98901.94;5094903;27;20039;-36
2022/08/15 08:43:24;;;;;;;8.48;5.30;;;;;;;30.17;40.18;98895.69;5131101;27;20029;-37
2022/08/15 08:46:11;;;;;;;5.82;5.32;;;;;;;29.92;39.73;98886.84;5131794;27;20031;-36
2022/08/15 08:48:50;;;;;;;6.53;5.50;;;;;;;30.13;39.88;98883.84;5131710;27;20088;-37
2022/08/15 08:51:31;;;;;;;;;;;;;;;30.17;39.84;98892.16;5131996;27;20029;-37
2022/08/15 08:54:22;;;;;;;6.85;5.30;;;;;;;30.25;39.93;98880.19;5131163;27;19960;-38
2022/08/15 08:56:54;;;;;;;7.70;6.05;;;;;;;30.57;40.09;98880.16;5131316;27;20439;-36
2022/08/15 08:59:31;;;;;;;6.82;5.35;;;;;;;30.57;40.51;98882.91;5130934;27;21426;-37
2022/08/15 09:02:03;;;;;;;7.00;5.80;;;;;;;30.54;39.84;98880.88;5128926;27;20045;-38
2022/08/15 09:04:41;;;;;;;7.15;5.90;;;;;;;30.71;39.95;98893.41;5130236;27;20034;-38
2022/08/15 09:07:08;;;;;;;6.53;5.78;;;;;;;30.62;40.01;98888.13;5127274;27;20098;-38
2022/08/15 09:09:37;;;;;;;6.20;5.60;;;;;;;30.23;40.89;98885.22;5130291;27;20037;-38
2022/08/15 09:15:05;;;;;;;8.13;5.82;;;;;;;30.88;39.43;98878.47;5130142;27;20083;-37
2022/08/15 09:17:35;;;;;;;6.72;5.95;;;;;;;30.64;40.03;98883.06;5130161;27;20027;-37
2022/08/15 09:20:14;;;;;;;7.80;6.35;;;;;;;30.55;40.30;98896.19;5129779;27;20054;-37
2022/08/15 09:22:40;;;;;;;6.43;5.82;;;;;;;30.22;40.99;98889.16;5130770;27;20029;-37
2022/08/15 09:25:07;;;;;;;9.95;6.78;;;;;;;30.56;40.67;98898.59;5131015;27;20031;-37
2022/08/15 09:28:04;;;;;;;7.10;6.20;;;;;;;30.54;40.93;98892.66;5131219;27;20026;-38
2022/08/15 09:30:32;;;;;;;9.05;6.63;;;;;;;30.60;41.20;98895.94;5130920;27;20039;-36
2022/08/15 09:33:33;;;;;;;6.40;5.80;;;;;;;31.17;39.27;98899.13;5131090;27;20103;-38
2022/08/15 09:36:13;;;;;;;7.75;6.20;;;;;;;31.20;39.63;98889.34;5130938;27;20035;-37
2022/08/15 09:39:00;;;;;;;8.13;6.15;;;;;;;30.82;39.92;98885.41;5133897;27;20088;-37
2022/08/15 09:41:40;;;;;;;6.80;6.13;;;;;;;31.68;38.67;98881.63;5134857;27;20019;-37
2022/08/15 09:44:20;;;;;;;6.88;6.18;;;;;;;31.01;39.82;98887.41;5134657;27;20023;-37
2022/08/15 09:47:33;;;;;;;6.68;6.00;;;;;;;30.96;39.20;98892.03;5134504;27;20034;-36
2022/08/15 09:50:14;;;;;;;7.00;6.30;;;;;;;31.12;39.31;98882.91;5071253;27;20099;-36
2022/08/15 09:52:48;;;;;;;6.95;6.28;;;;;;;31.45;39.57;98887.06;5133391;27;20035;-37
2022/08/15 09:55:16;;;;;;;6.38;5.78;;;;;;;31.69;38.04;98875.78;5134224;27;20035;-38
2022/08/15 09:57:48;;;;;;;8.18;6.07;;;;;;;32.01;37.94;98883.00;5133723;27;20079;-37
2022/08/15 10:00:15;;;;;;;6.40;5.80;;;;;;;32.14;37.78;98876.94;5133858;27;20034;-37
2022/08/15 10:02:43;;;;;;;8.30;5.82;;;;;;;32.61;37.05;98877.63;5133692;27;20098;-37
2022/08/15 10:05:40;;;;;;;7.05;6.30;;;;;;;32.22;36.28;98875.09;5133248;27;20085;-37
2022/08/15 10:08:09;;;;;;;6.70;5.95;;;;;;;32.28;36.98;98868.09;5137730;27;20569;-37
2022/08/15 10:10:55;;;;;;;7.90;7.00;;;;;;;32.35;36.98;98878.44;5154563;27;20026;-37
2022/08/15 10:13:28;;;;;;;6.80;6.15;;;;;;;32.57;36.07;98887.03;5154864;27;20030;-37
2022/08/15 10:15:56;;;;;;;9.52;6.25;;;;;;;32.50;35.10;98874.72;5155425;27;20030;-36
2022/08/15 10:18:27;;;;;;;7.00;6.07;;;;;;;32.34;35.81;98874.88;5144061;27;20420;-37
2022/08/15 10:21:18;;;;;;;8.85;5.97;;;;;;;32.92;35.71;98872.94;5135997;27;20095;-37
2022/08/15 10:23:46;;;;;;;7.78;6.65;;;;;;;32.84;34.77;98872.06;5154409;27;20031;-37
2022/08/15 10:26:24;;;;;;;6.57;5.97;;;;;;;32.82;34.75;98879.09;5154692;27;20489;-37
2022/08/15 10:29:08;;;;;;;9.15;7.35;;;;;;;33.00;33.72;98879.34;5154643;27;20417;-37
2022/08/15 10:31:50;;;;;;;6.97;6.28;;;;;;;32.25;34.42;98870.78;5153687;27;20038;-37
2022/08/15 10:34:41;;;;;;;7.20;6.50;;;;;;;31.75;35.15;98876.25;5154594;27;20034;-37
2022/08/15 10:37:15;;;;;;;10.65;7.30;;;;;;;31.86;35.56;98871.75;5154491;27;20018;-37
2022/08/15 10:39:54;;;;;;;8.10;7.30;;;;;;;31.69;35.80;98870.28;5154604;27;20149;-37
2022/08/15 10:42:35;;;;;;;8.63;7.50;;;;;;;31.81;35.99;98874.78;5152968;27;20797;-37
2022/08/15 10:45:17;;;;;;;8.38;7.43;;;;;;;32.09;35.29;98880.00;5153008;27;20035;-37
2022/08/15 10:48:11;;;;;;;8.30;7.25;;;;;;;31.83;35.37;98868.94;5152007;27;20509;-38
2022/08/15 10:50:46;;;;;;;8.93;7.03;;;;;;;32.33;34.83;98869.75;5136080;27;20275;-37
2022/08/15 10:53:48;;;;;;;7.82;7.03;;;;;;;32.55;34.51;98865.34;5134001;27;20079;-36
2022/08/15 10:56:16;;;;;;;9.30;7.40;;;;;;;32.75;34.15;98868.78;5133830;27;20023;-37
2022/08/15 10:58:42;;;;;;;7.80;6.93;;;;;;;32.81;33.92;98858.25;5133929;27;20023;-37
2022/08/15 11:01:23;;;;;;;7.10;6.40;;;;;;;32.56;32.88;98863.38;5133573;27;20011;-38
2022/08/15 11:03:52;;;;;;;7.30;6.20;;;;;;;32.56;33.38;98858.69;5133565;27;20041;-38
2022/08/15 11:06:20;;;;;;;;;;;;;;;32.69;33.13;98864.75;5134033;27;20379;-37
2022/08/15 11:08:55;;;;;;;6.10;5.50;;;;;;;33.00;32.11;98854.53;5132024;27;20362;-38
2022/08/15 11:11:24;;;;;;;7.05;5.60;;;;;;;32.82;32.51;98844.06;5133879;27;20537;-38
2022/08/15 11:13:57;;;;;;;6.40;5.80;;;;;;;32.70;32.97;98855.34;5133254;27;20394;-37
2022/08/15 11:16:32;;;;;;;6.57;5.97;;;;;;;32.97;32.46;98845.03;5133715;27;20045;-37
2022/08/15 11:19:00;;;;;;;6.50;5.88;;;;;;;32.98;32.54;98837.59;5133198;27;20026;-35
2022/08/15 11:21:42;;;;;;;6.32;5.72;;;;;;;33.39;32.39;98841.19;5133316;27;20015;-36
2022/08/15 11:24:10;;;;;;;5.70;5.20;;;;;;;33.12;31.59;98832.25;5132834;27;20062;-37
2022/08/15 11:26:42;;;;;;;6.13;5.50;;;;;;;33.35;31.68;98837.63;5132849;27;20106;-37
2022/08/15 11:29:20;;;;;;;7.32;6.63;;;;;;;33.91;31.11;98835.78;5133418;27;20102;-37
2022/08/15 11:31:58;;;;;;;5.50;5.00;;;;;;;33.96;30.82;98834.63;5132903;27;20043;-37
2022/08/15 11:34:34;;;;;;;6.90;5.53;;;;;;;33.58;31.48;98825.63;5133029;27;20376;-38
2022/08/15 11:37:10;;;;;;;6.45;5.70;;;;;;;33.50;31.41;98817.28;5132811;27;20057;-39
2022/08/15 11:39:42;;;;;;;5.82;5.25;;;;;;;33.60;31.63;98821.31;5132447;27;20019;-38
2022/08/15 11:42:17;;;;;;;6.20;5.60;;;;;;;34.03;31.00;98827.19;5133026;27;20474;-37
2022/08/15 11:45:06;;;;;;;6.15;5.32;;;;;;;34.26;30.49;98815.16;5133031;27;20031;-37
2022/08/15 11:47:34;;;;;;;6.45;5.70;;;;;;;34.18;31.02;98805.25;5133140;27;20015;-37
2022/08/15 11:50:07;;;;;;;;;;;;;;;34.25;30.66;98814.38;5133464;27;20102;-37
2022/08/15 11:52:47;;;;;;;6.20;5.57;;;;;;;34.49;30.63;98806.59;5132855;27;19907;-37
2022/08/15 11:55:13;;;;;;;7.47;5.55;;;;;;;34.03;30.04;98813.41;5131287;27;20029;-37
2022/08/15 11:57:48;;;;;;;5.85;5.28;;;;;;;33.81;30.44;98804.16;5132860;27;20023;-37
2022/08/15 12:00:28;;;;;;;6.45;5.30;;;;;;;33.43;30.60;98799.88;5131945;27;20020;-37
2022/08/15 12:02:54;;;;;;;7.68;5.50;;;;;;;33.79;30.72;98809.28;5132444;27;20029;-37
2022/08/15 12:05:34;;;;;;;5.80;5.20;;;;;;;33.85;29.71;98813.28;5132484;27;20072;-38
2022/08/15 12:08:01;;;;;;;;;;;;;;;34.02;29.38;98805.50;5132973;27;20019;-37